sensor_id;sensor_type;location;lat;lon;timestamp;P1;durP1;ratioP1;P2;durP2;ratioP2
22164;SDS011;11248;52.512;13.520;2022-09-09T00:02:22;4.32;;;3.63;;
22164;SDS011;11248;52.512;13.520;2022-09-09T00:04:58;4.00;;;3.60;;
22164;SDS011;11248;52.512;13.520;2022-09-09T00:07:36;4.13;;;3.72;;
22164;SDS011;11248;52.512;13.520;2022-09-09T00:15:38;4.05;;;3.65;;
22164;SDS011;11248;52.512;13.520;2022-09-09T00:18:22;4.50;;;4.10;;
22164;SDS011;11248;52.512;13.520;2022-09-09T00:21:06;4.97;;;4.05;;
22164;SDS011;11248;52.512;13.520;2022-09-09T00:23:37;5.07;;;3.67;;
22164;SDS011;11248;52.512;13.520;2022-09-09T00:28:36;5.10;;;4.60;;
22164;SDS011;11248;52.512;13.520;2022-09-09T00:31:11;5.28;;;4.65;;
22164;SDS011;11248;52.512;13.520;2022-09-09T00:33:37;4.75;;;4.28;;
22164;SDS011;11248;52.512;13.520;2022-09-09T00:36:04;4.40;;;4.05;;
22164;SDS011;11248;52.512;13.520;2022-09-09T00:38:39;4.95;;;4.45;;
22164;SDS011;11248;52.512;13.520;2022-09-09T00:43:46;4.10;;;3.70;;
22164;SDS011;11248;52.512;13.520;2022-09-09T00:49:03;5.05;;;4.55;;
22164;SDS011;11248;52.512;13.520;2022-09-09T00:51:39;4.95;;;4.47;;
22164;SDS011;11248;52.512;13.520;2022-09-09T00:54:11;5.00;;;4.43;;
22164;SDS011;11248;52.512;13.520;2022-09-09T00:56:39;4.65;;;4.15;;
22164;SDS011;11248;52.512;13.520;2022-09-09T00:59:20;3.97;;;3.67;;
22164;SDS011;11248;52.512;13.520;2022-09-09T01:01:46;4.72;;;4.28;;
22164;SDS011;11248;52.512;13.520;2022-09-09T01:04:16;4.30;;;3.90;;
22164;SDS011;11248;52.512;13.520;2022-09-09T01:06:45;4.15;;;3.75;;
22164;SDS011;11248;52.512;13.520;2022-09-09T01:16:58;4.22;;;3.83;;
22164;SDS011;11248;52.512;13.520;2022-09-09T01:19:36;3.90;;;3.28;;
22164;SDS011;11248;52.512;13.520;2022-09-09T01:22:08;3.72;;;3.33;;
22164;SDS011;11248;52.512;13.520;2022-09-09T01:24:48;3.63;;;3.33;;
22164;SDS011;11248;52.512;13.520;2022-09-09T01:27:16;3.58;;;3.28;;
22164;SDS011;11248;52.512;13.520;2022-09-09T01:29:42;4.18;;;3.78;;
22164;SDS011;11248;52.512;13.520;2022-09-09T01:34:53;3.95;;;3.58;;
22164;SDS011;11248;52.512;13.520;2022-09-09T01:37:19;3.70;;;3.30;;
22164;SDS011;11248;52.512;13.520;2022-09-09T01:39:45;4.10;;;3.53;;
22164;SDS011;11248;52.512;13.520;2022-09-09T01:42:12;4.20;;;3.80;;
22164;SDS011;11248;52.512;13.520;2022-09-09T01:44:39;4.45;;;4.05;;
22164;SDS011;11248;52.512;13.520;2022-09-09T01:47:05;4.22;;;3.83;;
22164;SDS011;11248;52.512;13.520;2022-09-09T01:49:31;4.80;;;4.30;;
22164;SDS011;11248;52.512;13.520;2022-09-09T01:52:00;4.82;;;4.15;;
22164;SDS011;11248;52.512;13.520;2022-09-09T01:54:27;3.78;;;3.47;;
22164;SDS011;11248;52.512;13.520;2022-09-09T01:56:58;4.57;;;4.18;;
22164;SDS011;11248;52.512;13.520;2022-09-09T01:59:35;5.27;;;4.77;;
22164;SDS011;11248;52.512;13.520;2022-09-09T02:02:13;5.90;;;4.22;;
22164;SDS011;11248;52.512;13.520;2022-09-09T02:07:27;4.10;;;3.70;;
22164;SDS011;11248;52.512;13.520;2022-09-09T02:09:57;4.90;;;4.40;;
22164;SDS011;11248;52.512;13.520;2022-09-09T02:12:24;5.00;;;4.50;;
22164;SDS011;11248;52.512;13.520;2022-09-09T02:15:00;5.25;;;4.43;;
22164;SDS011;11248;52.512;13.520;2022-09-09T02:17:28;5.60;;;4.38;;
22164;SDS011;11248;52.512;13.520;2022-09-09T02:19:59;4.03;;;3.70;;
22164;SDS011;11248;52.512;13.520;2022-09-09T02:22:27;4.90;;;4.40;;
22164;SDS011;11248;52.512;13.520;2022-09-09T02:24:57;5.35;;;4.18;;
22164;SDS011;11248;52.512;13.520;2022-09-09T02:27:24;4.90;;;3.60;;
22164;SDS011;11248;52.512;13.520;2022-09-09T02:29:51;4.25;;;3.80;;
22164;SDS011;11248;52.512;13.520;2022-09-09T02:32:18;4.40;;;4.00;;
22164;SDS011;11248;52.512;13.520;2022-09-09T02:34:47;4.60;;;3.80;;
22164;SDS011;11248;52.512;13.520;2022-09-09T02:37:13;4.68;;;4.25;;
22164;SDS011;11248;52.512;13.520;2022-09-09T02:39:40;4.20;;;3.80;;
22164;SDS011;11248;52.512;13.520;2022-09-09T02:42:06;5.22;;;4.05;;
22164;SDS011;11248;52.512;13.520;2022-09-09T02:44:33;4.30;;;3.90;;
22164;SDS011;11248;52.512;13.520;2022-09-09T02:47:07;4.20;;;3.80;;
22164;SDS011;11248;52.512;13.520;2022-09-09T02:49:40;4.10;;;3.70;;
22164;SDS011;11248;52.512;13.520;2022-09-09T02:52:17;3.95;;;3.60;;
22164;SDS011;11248;52.512;13.520;2022-09-09T02:54:44;4.75;;;4.13;;
22164;SDS011;11248;52.512;13.520;2022-09-09T02:57:11;3.97;;;3.53;;
22164;SDS011;11248;52.512;13.520;2022-09-09T02:59:38;3.88;;;3.58;;
22164;SDS011;11248;52.512;13.520;2022-09-09T03:02:04;3.85;;;3.45;;
22164;SDS011;11248;52.512;13.520;2022-09-09T03:04:30;4.80;;;3.85;;
22164;SDS011;11248;52.512;13.520;2022-09-09T03:06:56;4.53;;;4.05;;
22164;SDS011;11248;52.512;13.520;2022-09-09T03:09:23;4.35;;;3.95;;
22164;SDS011;11248;52.512;13.520;2022-09-09T03:11:49;4.30;;;3.90;;
22164;SDS011;11248;52.512;13.520;2022-09-09T03:14:15;4.15;;;3.60;;
22164;SDS011;11248;52.512;13.520;2022-09-09T03:16:41;4.30;;;3.40;;
22164;SDS011;11248;52.512;13.520;2022-09-09T03:19:08;5.00;;;4.10;;
22164;SDS011;11248;52.512;13.520;2022-09-09T03:21:34;7.15;;;3.80;;
22164;SDS011;11248;52.512;13.520;2022-09-09T03:24:00;4.05;;;3.65;;
22164;SDS011;11248;52.512;13.520;2022-09-09T03:26:28;4.03;;;3.30;;
22164;SDS011;11248;52.512;13.520;2022-09-09T03:28:54;4.68;;;3.80;;
22164;SDS011;11248;52.512;13.520;2022-09-09T03:31:20;4.18;;;3.78;;
22164;SDS011;11248;52.512;13.520;2022-09-09T03:33:46;3.70;;;3.33;;
22164;SDS011;11248;52.512;13.520;2022-09-09T03:39:16;3.72;;;3.30;;
22164;SDS011;11248;52.512;13.520;2022-09-09T03:41:42;3.55;;;3.25;;
22164;SDS011;11248;52.512;13.520;2022-09-09T03:44:10;3.42;;;3.13;;
22164;SDS011;11248;52.512;13.520;2022-09-09T03:46:36;4.38;;;3.60;;
22164;SDS011;11248;52.512;13.520;2022-09-09T03:49:03;3.60;;;3.30;;
22164;SDS011;11248;52.512;13.520;2022-09-09T03:51:29;3.42;;;3.13;;
22164;SDS011;11248;52.512;13.520;2022-09-09T03:53:55;4.50;;;3.75;;
22164;SDS011;11248;52.512;13.520;2022-09-09T03:56:23;4.03;;;3.63;;
22164;SDS011;11248;52.512;13.520;2022-09-09T03:58:48;3.47;;;3.17;;
22164;SDS011;11248;52.512;13.520;2022-09-09T04:01:15;4.20;;;3.80;;
22164;SDS011;11248;52.512;13.520;2022-09-09T04:03:42;4.72;;;3.65;;
22164;SDS011;11248;52.512;13.520;2022-09-09T04:06:10;4.30;;;3.40;;
22164;SDS011;11248;52.512;13.520;2022-09-09T04:08:38;3.85;;;3.28;;
22164;SDS011;11248;52.512;13.520;2022-09-09T04:11:04;6.03;;;3.22;;
22164;SDS011;11248;52.512;13.520;2022-09-09T04:13:31;3.03;;;2.83;;
22164;SDS011;11248;52.512;13.520;2022-09-09T04:15:57;3.17;;;2.88;;
22164;SDS011;11248;52.512;13.520;2022-09-09T04:18:24;3.80;;;2.95;;
22164;SDS011;11248;52.512;13.520;2022-09-09T04:20:51;2.88;;;2.67;;
22164;SDS011;11248;52.512;13.520;2022-09-09T04:23:17;3.72;;;3.15;;
22164;SDS011;11248;52.512;13.520;2022-09-09T04:25:45;3.40;;;3.08;;
22164;SDS011;11248;52.512;13.520;2022-09-09T04:28:12;3.80;;;3.30;;
22164;SDS011;11248;52.512;13.520;2022-09-09T04:30:38;4.18;;;3.15;;
22164;SDS011;11248;52.512;13.520;2022-09-09T04:33:05;4.30;;;3.90;;
22164;SDS011;11248;52.512;13.520;2022-09-09T04:35:31;3.97;;;3.58;;
22164;SDS011;11248;52.512;13.520;2022-09-09T04:37:57;7.20;;;4.00;;
22164;SDS011;11248;52.512;13.520;2022-09-09T04:40:23;4.03;;;3.28;;
22164;SDS011;11248;52.512;13.520;2022-09-09T04:42:50;4.30;;;3.33;;
22164;SDS011;11248;52.512;13.520;2022-09-09T04:45:16;4.13;;;3.60;;
22164;SDS011;11248;52.512;13.520;2022-09-09T04:47:41;4.32;;;3.70;;
22164;SDS011;11248;52.512;13.520;2022-09-09T04:50:08;3.67;;;3.38;;
22164;SDS011;11248;52.512;13.520;2022-09-09T04:52:34;3.85;;;3.50;;
22164;SDS011;11248;52.512;13.520;2022-09-09T04:55:00;4.22;;;3.78;;
22164;SDS011;11248;52.512;13.520;2022-09-09T04:57:26;4.05;;;3.65;;
22164;SDS011;11248;52.512;13.520;2022-09-09T04:59:53;6.70;;;3.90;;
22164;SDS011;11248;52.512;13.520;2022-09-09T05:02:19;4.30;;;3.75;;
22164;SDS011;11248;52.512;13.520;2022-09-09T05:04:45;4.15;;;3.75;;
22164;SDS011;11248;52.512;13.520;2022-09-09T05:07:11;6.07;;;3.67;;
22164;SDS011;11248;52.512;13.520;2022-09-09T05:09:38;4.10;;;3.70;;
22164;SDS011;11248;52.512;13.520;2022-09-09T05:12:04;3.78;;;3.40;;
22164;SDS011;11248;52.512;13.520;2022-09-09T05:14:30;3.80;;;3.22;;
22164;SDS011;11248;52.512;13.520;2022-09-09T05:16:56;3.95;;;3.25;;
22164;SDS011;11248;52.512;13.520;2022-09-09T05:19:22;6.10;;;3.80;;
22164;SDS011;11248;52.512;13.520;2022-09-09T05:21:48;3.70;;;3.28;;
22164;SDS011;11248;52.512;13.520;2022-09-09T05:24:15;5.35;;;3.78;;
22164;SDS011;11248;52.512;13.520;2022-09-09T05:26:41;4.38;;;3.58;;
22164;SDS011;11248;52.512;13.520;2022-09-09T05:29:08;3.72;;;3.33;;
22164;SDS011;11248;52.512;13.520;2022-09-09T05:31:34;4.57;;;3.30;;
22164;SDS011;11248;52.512;13.520;2022-09-09T05:34:00;4.10;;;3.45;;
22164;SDS011;11248;52.512;13.520;2022-09-09T05:36:26;4.30;;;3.30;;
22164;SDS011;11248;52.512;13.520;2022-09-09T05:38:52;4.53;;;3.20;;
22164;SDS011;11248;52.512;13.520;2022-09-09T05:41:21;3.35;;;2.78;;
22164;SDS011;11248;52.512;13.520;2022-09-09T05:43:48;3.35;;;3.05;;
22164;SDS011;11248;52.512;13.520;2022-09-09T05:46:20;4.50;;;3.17;;
22164;SDS011;11248;52.512;13.520;2022-09-09T05:48:47;3.70;;;3.30;;
22164;SDS011;11248;52.512;13.520;2022-09-09T05:51:16;3.20;;;2.78;;
22164;SDS011;11248;52.512;13.520;2022-09-09T05:53:42;3.55;;;2.97;;
22164;SDS011;11248;52.512;13.520;2022-09-09T05:56:09;3.88;;;3.28;;
22164;SDS011;11248;52.512;13.520;2022-09-09T05:58:36;3.78;;;3.33;;
22164;SDS011;11248;52.512;13.520;2022-09-09T06:01:03;4.40;;;3.45;;
22164;SDS011;11248;52.512;13.520;2022-09-09T06:03:29;3.22;;;2.90;;
22164;SDS011;11248;52.512;13.520;2022-09-09T06:05:58;4.82;;;3.13;;
22164;SDS011;11248;52.512;13.520;2022-09-09T06:08:24;3.55;;;3.20;;
22164;SDS011;11248;52.512;13.520;2022-09-09T06:10:50;5.45;;;3.90;;
22164;SDS011;11248;52.512;13.520;2022-09-09T06:13:17;5.00;;;2.88;;
22164;SDS011;11248;52.512;13.520;2022-09-09T06:15:52;4.07;;;3.20;;
22164;SDS011;11248;52.512;13.520;2022-09-09T06:18:18;5.03;;;3.53;;
22164;SDS011;11248;52.512;13.520;2022-09-09T06:20:54;2.63;;;2.40;;
22164;SDS011;11248;52.512;13.520;2022-09-09T06:23:20;3.65;;;2.50;;
22164;SDS011;11248;52.512;13.520;2022-09-09T06:25:46;2.72;;;2.40;;
22164;SDS011;11248;52.512;13.520;2022-09-09T06:28:13;2.50;;;2.30;;
22164;SDS011;11248;52.512;13.520;2022-09-09T06:30:39;3.35;;;2.75;;
22164;SDS011;11248;52.512;13.520;2022-09-09T06:33:06;2.20;;;2.00;;
22164;SDS011;11248;52.512;13.520;2022-09-09T06:35:32;2.45;;;2.22;;
22164;SDS011;11248;52.512;13.520;2022-09-09T06:37:58;2.80;;;2.33;;
22164;SDS011;11248;52.512;13.520;2022-09-09T06:40:24;2.70;;;2.50;;
22164;SDS011;11248;52.512;13.520;2022-09-09T06:42:50;3.22;;;2.30;;
22164;SDS011;11248;52.512;13.520;2022-09-09T06:45:16;3.55;;;2.50;;
22164;SDS011;11248;52.512;13.520;2022-09-09T06:47:42;4.70;;;2.30;;
22164;SDS011;11248;52.512;13.520;2022-09-09T06:50:08;2.35;;;2.15;;
22164;SDS011;11248;52.512;13.520;2022-09-09T06:52:35;2.25;;;2.05;;
22164;SDS011;11248;52.512;13.520;2022-09-09T06:55:01;2.88;;;1.92;;
22164;SDS011;11248;52.512;13.520;2022-09-09T06:57:27;2.08;;;1.90;;
22164;SDS011;11248;52.512;13.520;2022-09-09T06:59:53;2.38;;;1.88;;
22164;SDS011;11248;52.512;13.520;2022-09-09T07:02:19;4.05;;;1.88;;
22164;SDS011;11248;52.512;13.520;2022-09-09T07:04:46;2.65;;;1.75;;
22164;SDS011;11248;52.512;13.520;2022-09-09T07:07:12;3.53;;;2.13;;
22164;SDS011;11248;52.512;13.520;2022-09-09T07:09:40;2.90;;;1.95;;
22164;SDS011;11248;52.512;13.520;2022-09-09T07:12:06;4.43;;;1.90;;
22164;SDS011;11248;52.512;13.520;2022-09-09T07:14:32;2.92;;;1.95;;
22164;SDS011;11248;52.512;13.520;2022-09-09T07:17:01;2.78;;;1.60;;
22164;SDS011;11248;52.512;13.520;2022-09-09T07:19:26;3.03;;;2.20;;
22164;SDS011;11248;52.512;13.520;2022-09-09T07:21:52;2.35;;;1.83;;
22164;SDS011;11248;52.512;13.520;2022-09-09T07:24:18;2.30;;;1.70;;
22164;SDS011;11248;52.512;13.520;2022-09-09T07:26:44;1.95;;;1.75;;
22164;SDS011;11248;52.512;13.520;2022-09-09T07:29:10;3.20;;;1.90;;
22164;SDS011;11248;52.512;13.520;2022-09-09T07:31:38;1.80;;;1.60;;
22164;SDS011;11248;52.512;13.520;2022-09-09T07:34:05;1.95;;;1.40;;
22164;SDS011;11248;52.512;13.520;2022-09-09T07:36:35;2.97;;;1.80;;
22164;SDS011;11248;52.512;13.520;2022-09-09T07:39:04;3.92;;;2.05;;
22164;SDS011;11248;52.512;13.520;2022-09-09T07:41:34;4.25;;;1.77;;
22164;SDS011;11248;52.512;13.520;2022-09-09T07:44:10;2.03;;;1.55;;
22164;SDS011;11248;52.512;13.520;2022-09-09T07:46:37;2.63;;;1.52;;
22164;SDS011;11248;52.512;13.520;2022-09-09T07:49:04;2.47;;;1.75;;
22164;SDS011;11248;52.512;13.520;2022-09-09T07:51:31;2.58;;;1.70;;
22164;SDS011;11248;52.512;13.520;2022-09-09T07:53:58;3.33;;;1.90;;
22164;SDS011;11248;52.512;13.520;2022-09-09T07:56:25;2.72;;;1.85;;
22164;SDS011;11248;52.512;13.520;2022-09-09T07:58:52;2.60;;;1.80;;
22164;SDS011;11248;52.512;13.520;2022-09-09T08:01:20;2.35;;;1.38;;
22164;SDS011;11248;52.512;13.520;2022-09-09T08:03:47;3.08;;;1.55;;
22164;SDS011;11248;52.512;13.520;2022-09-09T08:06:13;1.98;;;1.50;;
22164;SDS011;11248;52.512;13.520;2022-09-09T08:08:39;3.72;;;1.67;;
22164;SDS011;11248;52.512;13.520;2022-09-09T08:11:11;1.30;;;1.20;;
22164;SDS011;11248;52.512;13.520;2022-09-09T08:13:37;2.92;;;1.55;;
22164;SDS011;11248;52.512;13.520;2022-09-09T08:16:07;4.22;;;1.65;;
22164;SDS011;11248;52.512;13.520;2022-09-09T08:18:34;2.33;;;1.48;;
22164;SDS011;11248;52.512;13.520;2022-09-09T08:21:33;2.65;;;1.60;;
22164;SDS011;11248;52.512;13.520;2022-09-09T08:23:53;2.15;;;1.25;;
22164;SDS011;11248;52.512;13.520;2022-09-09T08:26:20;1.90;;;1.48;;
22164;SDS011;11248;52.512;13.520;2022-09-09T08:28:47;4.05;;;1.20;;
22164;SDS011;11248;52.512;13.520;2022-09-09T08:31:15;4.00;;;1.33;;
22164;SDS011;11248;52.512;13.520;2022-09-09T08:33:41;2.67;;;1.42;;
22164;SDS011;11248;52.512;13.520;2022-09-09T08:36:11;2.30;;;1.27;;
22164;SDS011;11248;52.512;13.520;2022-09-09T08:38:38;2.05;;;1.27;;
22164;SDS011;11248;52.512;13.520;2022-09-09T08:41:11;2.30;;;1.23;;
22164;SDS011;11248;52.512;13.520;2022-09-09T08:43:42;3.55;;;1.20;;
22164;SDS011;11248;52.512;13.520;2022-09-09T08:46:25;2.05;;;1.50;;
22164;SDS011;11248;52.512;13.520;2022-09-09T08:48:59;1.92;;;1.10;;
22164;SDS011;11248;52.512;13.520;2022-09-09T08:51:27;3.22;;;1.40;;
22164;SDS011;11248;52.512;13.520;2022-09-09T08:53:54;1.90;;;1.17;;
22164;SDS011;11248;52.512;13.520;2022-09-09T08:56:23;3.25;;;1.33;;
22164;SDS011;11248;52.512;13.520;2022-09-09T08:58:50;2.58;;;1.33;;
22164;SDS011;11248;52.512;13.520;2022-09-09T09:01:19;5.20;;;1.90;;
22164;SDS011;11248;52.512;13.520;2022-09-09T09:03:59;1.33;;;1.00;;
22164;SDS011;11248;52.512;13.520;2022-09-09T09:09:06;2.25;;;1.20;;
22164;SDS011;11248;52.512;13.520;2022-09-09T09:11:48;2.45;;;1.35;;
22164;SDS011;11248;52.512;13.520;2022-09-09T09:14:22;1.10;;;1.00;;
22164;SDS011;11248;52.512;13.520;2022-09-09T09:16:50;3.35;;;1.27;;
22164;SDS011;11248;52.512;13.520;2022-09-09T09:19:18;1.90;;;1.20;;
22164;SDS011;11248;52.512;13.520;2022-09-09T09:21:55;2.28;;;1.05;;
22164;SDS011;11248;52.512;13.520;2022-09-09T09:24:24;4.45;;;1.40;;
22164;SDS011;11248;52.512;13.520;2022-09-09T09:26:53;2.10;;;1.13;;
22164;SDS011;11248;52.512;13.520;2022-09-09T09:29:19;2.50;;;1.27;;
22164;SDS011;11248;52.512;13.520;2022-09-09T09:31:53;6.00;;;1.20;;
22164;SDS011;11248;52.512;13.520;2022-09-09T09:34:20;2.67;;;1.08;;
22164;SDS011;11248;52.512;13.520;2022-09-09T09:36:52;1.52;;;1.02;;
22164;SDS011;11248;52.512;13.520;2022-09-09T09:39:25;3.45;;;1.25;;
22164;SDS011;11248;52.512;13.520;2022-09-09T09:41:52;1.90;;;1.20;;
22164;SDS011;11248;52.512;13.520;2022-09-09T09:44:25;2.35;;;1.08;;
22164;SDS011;11248;52.512;13.520;2022-09-09T09:46:51;1.98;;;1.23;;
22164;SDS011;11248;52.512;13.520;2022-09-09T09:49:17;5.50;;;1.40;;
22164;SDS011;11248;52.512;13.520;2022-09-09T09:51:43;2.78;;;1.20;;
22164;SDS011;11248;52.512;13.520;2022-09-09T09:56:35;2.13;;;1.20;;
22164;SDS011;11248;52.512;13.520;2022-09-09T09:59:02;4.43;;;1.20;;
22164;SDS011;11248;52.512;13.520;2022-09-09T10:01:31;1.75;;;1.20;;
22164;SDS011;11248;52.512;13.520;2022-09-09T10:03:59;2.38;;;1.20;;
22164;SDS011;11248;52.512;13.520;2022-09-09T10:06:33;3.33;;;1.15;;
22164;SDS011;11248;52.512;13.520;2022-09-09T10:08:59;2.30;;;1.10;;
22164;SDS011;11248;52.512;13.520;2022-09-09T10:11:44;2.55;;;1.10;;
22164;SDS011;11248;52.512;13.520;2022-09-09T10:17:04;1.48;;;0.90;;
22164;SDS011;11248;52.512;13.520;2022-09-09T10:19:36;3.42;;;1.13;;
22164;SDS011;11248;52.512;13.520;2022-09-09T10:27:22;2.83;;;1.35;;
22164;SDS011;11248;52.512;13.520;2022-09-09T10:29:54;3.78;;;1.08;;
22164;SDS011;11248;52.512;13.520;2022-09-09T10:40:18;4.38;;;1.17;;
22164;SDS011;11248;52.512;13.520;2022-09-09T10:42:46;2.22;;;1.20;;
22164;SDS011;11248;52.512;13.520;2022-09-09T10:45:17;2.10;;;1.05;;
22164;SDS011;11248;52.512;13.520;2022-09-09T10:47:57;3.00;;;1.15;;
22164;SDS011;11248;52.512;13.520;2022-09-09T10:53:02;2.65;;;1.02;;
22164;SDS011;11248;52.512;13.520;2022-09-09T10:55:38;2.20;;;1.15;;
22164;SDS011;11248;52.512;13.520;2022-09-09T10:58:05;1.02;;;0.90;;
22164;SDS011;11248;52.512;13.520;2022-09-09T11:00:37;1.27;;;0.80;;
22164;SDS011;11248;52.512;13.520;2022-09-09T11:03:04;2.00;;;1.00;;
22164;SDS011;11248;52.512;13.520;2022-09-09T11:05:36;3.92;;;1.10;;
22164;SDS011;11248;52.512;13.520;2022-09-09T11:08:16;2.10;;;1.23;;
22164;SDS011;11248;52.512;13.520;2022-09-09T11:10:55;3.13;;;1.33;;
22164;SDS011;11248;52.512;13.520;2022-09-09T11:13:27;3.70;;;1.40;;
22164;SDS011;11248;52.512;13.520;2022-09-09T11:16:01;1.77;;;1.30;;
22164;SDS011;11248;52.512;13.520;2022-09-09T11:18:30;1.80;;;1.13;;
22164;SDS011;11248;52.512;13.520;2022-09-09T11:20:58;3.00;;;1.00;;
22164;SDS011;11248;52.512;13.520;2022-09-09T11:23:27;2.47;;;1.08;;
22164;SDS011;11248;52.512;13.520;2022-09-09T11:25:55;3.65;;;1.00;;
22164;SDS011;11248;52.512;13.520;2022-09-09T11:28:26;2.08;;;0.90;;
22164;SDS011;11248;52.512;13.520;2022-09-09T11:31:09;2.38;;;1.05;;
22164;SDS011;11248;52.512;13.520;2022-09-09T11:36:44;3.10;;;1.27;;
22164;SDS011;11248;52.512;13.520;2022-09-09T11:47:16;2.38;;;0.95;;
22164;SDS011;11248;52.512;13.520;2022-09-09T11:49:43;1.65;;;0.70;;
22164;SDS011;11248;52.512;13.520;2022-09-09T11:54:49;2.13;;;0.88;;
22164;SDS011;11248;52.512;13.520;2022-09-09T11:57:48;1.65;;;1.00;;
22164;SDS011;11248;52.512;13.520;2022-09-09T12:00:27;1.77;;;0.95;;
22164;SDS011;11248;52.512;13.520;2022-09-09T12:02:53;1.92;;;0.90;;
22164;SDS011;11248;52.512;13.520;2022-09-09T12:05:19;2.10;;;0.98;;
22164;SDS011;11248;52.512;13.520;2022-09-09T12:07:55;2.15;;;0.80;;
22164;SDS011;11248;52.512;13.520;2022-09-09T12:10:27;1.25;;;0.80;;
22164;SDS011;11248;52.512;13.520;2022-09-09T12:12:55;2.45;;;1.00;;
22164;SDS011;11248;52.512;13.520;2022-09-09T12:15:25;2.65;;;0.80;;
22164;SDS011;11248;52.512;13.520;2022-09-09T12:17:54;2.15;;;0.82;;
22164;SDS011;11248;52.512;13.520;2022-09-09T12:20:21;1.98;;;0.98;;
22164;SDS011;11248;52.512;13.520;2022-09-09T12:22:52;1.65;;;0.90;;
22164;SDS011;11248;52.512;13.520;2022-09-09T12:30:31;1.58;;;0.90;;
22164;SDS011;11248;52.512;13.520;2022-09-09T12:33:02;1.92;;;0.70;;
22164;SDS011;11248;52.512;13.520;2022-09-09T12:35:28;2.55;;;0.90;;
22164;SDS011;11248;52.512;13.520;2022-09-09T12:37:57;1.80;;;0.80;;
22164;SDS011;11248;52.512;13.520;2022-09-09T12:40:25;1.15;;;0.57;;
22164;SDS011;11248;52.512;13.520;2022-09-09T12:42:51;1.15;;;0.70;;
22164;SDS011;11248;52.512;13.520;2022-09-09T12:47:56;1.45;;;0.90;;
22164;SDS011;11248;52.512;13.520;2022-09-09T12:50:24;1.40;;;0.80;;
22164;SDS011;11248;52.512;13.520;2022-09-09T12:52:51;1.00;;;0.40;;
22164;SDS011;11248;52.512;13.520;2022-09-09T12:55:19;3.80;;;0.93;;
22164;SDS011;11248;52.512;13.520;2022-09-09T12:57:46;3.30;;;0.88;;
22164;SDS011;11248;52.512;13.520;2022-09-09T13:00:15;2.25;;;0.80;;
22164;SDS011;11248;52.512;13.520;2022-09-09T13:02:45;1.27;;;0.70;;
22164;SDS011;11248;52.512;13.520;2022-09-09T13:05:15;2.55;;;0.85;;
22164;SDS011;11248;52.512;13.520;2022-09-09T13:07:41;0.90;;;0.65;;
22164;SDS011;11248;52.512;13.520;2022-09-09T13:10:10;2.65;;;0.80;;
22164;SDS011;11248;52.512;13.520;2022-09-09T13:12:36;1.98;;;0.80;;
22164;SDS011;11248;52.512;13.520;2022-09-09T13:15:03;2.13;;;0.90;;
22164;SDS011;11248;52.512;13.520;2022-09-09T13:17:29;2.40;;;0.77;;
22164;SDS011;11248;52.512;13.520;2022-09-09T13:19:55;0.98;;;0.70;;
22164;SDS011;11248;52.512;13.520;2022-09-09T13:22:30;2.45;;;0.73;;
22164;SDS011;11248;52.512;13.520;2022-09-09T13:24:58;2.03;;;0.70;;
22164;SDS011;11248;52.512;13.520;2022-09-09T13:27:27;0.77;;;0.50;;
22164;SDS011;11248;52.512;13.520;2022-09-09T13:29:54;1.08;;;0.60;;
22164;SDS011;11248;52.512;13.520;2022-09-09T13:32:21;0.68;;;0.45;;
22164;SDS011;11248;52.512;13.520;2022-09-09T13:34:51;0.70;;;0.45;;
22164;SDS011;11248;52.512;13.520;2022-09-09T13:37:22;1.30;;;0.60;;
22164;SDS011;11248;52.512;13.520;2022-09-09T13:39:51;2.10;;;0.95;;
22164;SDS011;11248;52.512;13.520;2022-09-09T13:42:28;1.95;;;0.73;;
22164;SDS011;11248;52.512;13.520;2022-09-09T13:44:55;2.47;;;0.90;;
22164;SDS011;11248;52.512;13.520;2022-09-09T13:47:22;1.02;;;0.70;;
22164;SDS011;11248;52.512;13.520;2022-09-09T13:49:52;0.68;;;0.50;;
22164;SDS011;11248;52.512;13.520;2022-09-09T13:52:18;2.35;;;0.68;;
22164;SDS011;11248;52.512;13.520;2022-09-09T13:54:47;1.70;;;0.77;;
22164;SDS011;11248;52.512;13.520;2022-09-09T13:57:24;2.05;;;0.55;;
22164;SDS011;11248;52.512;13.520;2022-09-09T13:59:50;1.23;;;0.70;;
22164;SDS011;11248;52.512;13.520;2022-09-09T14:02:16;1.95;;;0.90;;
22164;SDS011;11248;52.512;13.520;2022-09-09T14:04:42;5.50;;;0.80;;
22164;SDS011;11248;52.512;13.520;2022-09-09T14:07:12;1.50;;;0.85;;
22164;SDS011;11248;52.512;13.520;2022-09-09T14:09:39;1.45;;;0.70;;
22164;SDS011;11248;52.512;13.520;2022-09-09T14:12:08;0.73;;;0.50;;
22164;SDS011;11248;52.512;13.520;2022-09-09T14:14:34;2.63;;;1.00;;
22164;SDS011;11248;52.512;13.520;2022-09-09T14:17:01;1.85;;;0.90;;
22164;SDS011;11248;52.512;13.520;2022-09-09T14:19:26;2.45;;;0.88;;
22164;SDS011;11248;52.512;13.520;2022-09-09T14:21:52;0.55;;;0.47;;
22164;SDS011;11248;52.512;13.520;2022-09-09T14:24:19;3.92;;;1.00;;
22164;SDS011;11248;52.512;13.520;2022-09-09T14:26:45;1.05;;;0.65;;
22164;SDS011;11248;52.512;13.520;2022-09-09T14:29:11;1.85;;;0.80;;
22164;SDS011;11248;52.512;13.520;2022-09-09T14:31:37;0.65;;;0.52;;
22164;SDS011;11248;52.512;13.520;2022-09-09T14:34:02;1.60;;;0.80;;
22164;SDS011;11248;52.512;13.520;2022-09-09T14:36:28;2.28;;;1.00;;
22164;SDS011;11248;52.512;13.520;2022-09-09T14:38:55;2.15;;;1.00;;
22164;SDS011;11248;52.512;13.520;2022-09-09T14:41:20;2.45;;;0.90;;
22164;SDS011;11248;52.512;13.520;2022-09-09T14:43:47;2.08;;;0.80;;
22164;SDS011;11248;52.512;13.520;2022-09-09T14:46:14;2.05;;;0.90;;
22164;SDS011;11248;52.512;13.520;2022-09-09T14:48:40;1.77;;;0.63;;
22164;SDS011;11248;52.512;13.520;2022-09-09T14:51:13;3.03;;;0.90;;
22164;SDS011;11248;52.512;13.520;2022-09-09T14:53:40;1.20;;;0.70;;
22164;SDS011;11248;52.512;13.520;2022-09-09T14:56:10;1.25;;;0.73;;
22164;SDS011;11248;52.512;13.520;2022-09-09T14:58:37;1.45;;;0.60;;
22164;SDS011;11248;52.512;13.520;2022-09-09T15:01:04;2.33;;;0.80;;
22164;SDS011;11248;52.512;13.520;2022-09-09T15:03:30;2.08;;;0.85;;
22164;SDS011;11248;52.512;13.520;2022-09-09T15:05:56;1.17;;;0.70;;
22164;SDS011;11248;52.512;13.520;2022-09-09T15:08:23;1.73;;;0.70;;
22164;SDS011;11248;52.512;13.520;2022-09-09T15:10:49;2.58;;;0.73;;
22164;SDS011;11248;52.512;13.520;2022-09-09T15:13:15;1.90;;;0.60;;
22164;SDS011;11248;52.512;13.520;2022-09-09T15:15:44;3.42;;;0.80;;
22164;SDS011;11248;52.512;13.520;2022-09-09T15:18:10;1.40;;;0.80;;
22164;SDS011;11248;52.512;13.520;2022-09-09T15:20:37;4.10;;;0.80;;
22164;SDS011;11248;52.512;13.520;2022-09-09T15:23:03;0.90;;;0.80;;
22164;SDS011;11248;52.512;13.520;2022-09-09T15:25:31;0.73;;;0.55;;
22164;SDS011;11248;52.512;13.520;2022-09-09T15:27:57;1.27;;;0.80;;
22164;SDS011;11248;52.512;13.520;2022-09-09T15:30:23;4.75;;;1.30;;
22164;SDS011;11248;52.512;13.520;2022-09-09T15:32:49;2.50;;;0.95;;
22164;SDS011;11248;52.512;13.520;2022-09-09T15:35:17;3.28;;;0.90;;
22164;SDS011;11248;52.512;13.520;2022-09-09T15:37:43;1.42;;;0.90;;
22164;SDS011;11248;52.512;13.520;2022-09-09T15:40:10;3.17;;;0.93;;
22164;SDS011;11248;52.512;13.520;2022-09-09T15:42:36;2.00;;;0.70;;
22164;SDS011;11248;52.512;13.520;2022-09-09T15:45:02;2.38;;;0.70;;
22164;SDS011;11248;52.512;13.520;2022-09-09T15:47:29;1.30;;;0.52;;
22164;SDS011;11248;52.512;13.520;2022-09-09T15:49:55;1.55;;;0.93;;
22164;SDS011;11248;52.512;13.520;2022-09-09T15:52:21;1.95;;;0.80;;
22164;SDS011;11248;52.512;13.520;2022-09-09T15:54:47;3.28;;;0.85;;
22164;SDS011;11248;52.512;13.520;2022-09-09T15:57:13;1.80;;;0.70;;